Time;durP1;ratioP1;P1;durP2;ratioP2;P2;SDS_P1;SDS_P2;PMS_P1;PMS_P2;Temp;Humidity;BMP_temperature;BMP_pressure;BME280_temperature;BME280_humidity;BME280_pressure;Samples;Min_cycle;Max_cycle;Signal;HPM_P1;HPM_P2
2023/02/21 02:15:08;;;;;;;1.60;0.90;;;;;;;9.06;49.89;100077.90;107547;1254;109444;-59
2023/02/21 02:17:42;;;;;;;2.40;1.20;;;;;;;9.10;49.81;100073.33;107595;1254;107933;-60
2023/02/21 02:20:37;;;;;;;2.00;1.10;;;;;;;9.14;49.78;100068.30;107493;1254;98345;-60
2023/02/21 02:23:38;;;;;;;7.70;1.20;;;;;;;9.19;49.73;100066.76;107507;1254;98460;-60
2023/02/21 02:26:39;;;;;;;5.70;0.90;;;;;;;9.22;49.70;100068.56;107438;1255;111629;-60
2023/02/21 02:29:27;;;;;;;6.70;1.30;;;;;;;9.28;49.66;100072.10;107267;1254;109546;-60
2023/02/21 02:32:02;;;;;;;3.50;1.40;;;;;;;9.35;49.37;100068.47;107606;1254;106867;-61
2023/02/21 02:34:30;;;;;;;6.50;1.40;;;;;;;9.37;49.41;100060.48;107487;1260;97933;-59
2023/02/21 02:37:08;;;;;;;3.70;1.30;;;;;;;9.42;49.40;100059.73;107584;1254;97828;-59
2023/02/21 02:39:44;;;;;;;2.10;1.30;;;;;;;9.46;49.35;100056.71;107553;1254;112282;-62
2023/02/21 02:42:28;;;;;;;1.80;0.90;;;;;;;9.49;49.27;100055.17;107581;1255;108913;-59
2023/02/21 02:45:04;;;;;;;2.20;1.40;;;;;;;9.50;49.27;100057.88;107500;1254;109920;-60
2023/02/21 02:47:36;;;;;;;2.00;1.20;;;;;;;9.52;49.16;100055.02;107363;1255;97942;-60
2023/02/21 02:50:08;;;;;;;4.20;1.10;;;;;;;9.55;49.08;100050.63;107507;1254;97823;-61
2023/02/21 02:52:38;;;;;;;3.20;1.20;;;;;;;9.57;49.11;100050.48;107522;1254;111296;-62
2023/02/21 02:55:21;;;;;;;2.40;1.20;;;;;;;9.57;49.13;100055.42;107482;1260;110342;-60
2023/02/21 02:57:51;;;;;;;2.50;1.10;;;;;;;9.60;49.01;100054.48;107578;1254;109497;-60
2023/02/21 03:00:21;;;;;;;6.50;1.00;;;;;;;9.61;49.09;100053.64;107496;1254;97822;-60
2023/02/21 03:03:30;;;;;;;5.00;1.40;;;;;;;9.62;49.11;100049.81;107612;1254;97732;-60
2023/02/21 03:06:11;;;;;;;4.10;1.10;;;;;;;9.63;49.11;100046.98;107535;1254;111833;-61
2023/02/21 03:09:06;;;;;;;5.40;1.30;;;;;;;9.63;49.09;100046.84;107465;1259;109661;-61
2023/02/21 03:11:42;;;;;;;1.60;1.00;;;;;;;9.64;49.15;100053.04;107539;1253;108192;-62
2023/02/21 03:14:16;;;;;;;2.40;1.20;;;;;;;9.65;49.05;100053.64;107574;1254;98949;-63
2023/02/21 03:16:52;;;;;;;4.60;1.40;;;;;;;9.65;49.13;100051.46;107491;1254;97943;-61
2023/02/21 03:19:26;;;;;;;3.20;1.20;;;;;;;9.66;49.10;100052.42;107619;1254;112367;-61
2023/02/21 03:22:12;;;;;;;2.50;1.40;;;;;;;9.66;49.04;100051.32;107469;1254;110906;-61
2023/02/21 03:24:44;;;;;;;5.60;1.40;;;;;;;9.65;49.11;100049.11;107455;1254;109078;-60
2023/02/21 03:27:14;;;;;;;1.50;1.20;;;;;;;9.65;49.12;100052.30;107471;1254;97736;-60
2023/02/21 03:30:01;;;;;;;1.50;1.10;;;;;;;9.68;48.97;100054.96;107589;1255;97810;-59
2023/02/21 03:32:50;;;;;;;4.00;1.60;;;;;;;9.71;48.91;100054.66;107533;1257;111268;-61
2023/02/21 03:35:19;;;;;;;3.40;1.30;;;;;;;9.75;48.89;100050.15;107473;1253;108998;-60
2023/02/21 03:37:52;;;;;;;5.60;1.60;;;;;;;9.77;48.83;100052.68;107573;1256;108405;-61
2023/02/21 03:40:29;;;;;;;2.00;1.30;;;;;;;9.76;48.88;100052.58;107606;1254;97807;-61
2023/02/21 03:43:01;;;;;;;3.80;1.00;;;;;;;9.74;48.97;100053.83;107532;1254;97722;-60
2023/02/21 03:45:34;;;;;;;2.10;1.40;;;;;;;9.72;49.05;100057.06;107582;1254;111578;-60
2023/02/21 03:48:12;;;;;;;4.60;1.20;;;;;;;9.70;49.08;100063.85;107553;1254;109125;-60
2023/02/21 03:50:54;;;;;;;2.30;1.60;;;;;;;9.71;49.09;100058.08;107513;1254;107777;-61
2023/02/21 03:53:23;;;;;;;7.20;1.50;;;;;;;9.71;49.27;100056.80;107417;1254;97834;-61
2023/02/21 03:55:51;;;;;;;6.50;1.40;;;;;;;9.70;49.24;100050.59;107580;1257;98364;-62
2023/02/21 03:58:25;;;;;;;4.80;1.60;;;;;;;9.69;49.29;100052.17;107616;1254;111919;-60
2023/02/21 04:00:53;;;;;;;3.00;1.50;;;;;;;9.68;49.23;100045.95;107586;1255;110730;-60
2023/02/21 04:03:22;;;;;;;5.80;1.90;;;;;;;9.70;49.30;100040.75;107547;1254;107663;-59
2023/02/21 04:05:55;;;;;;;5.00;1.70;;;;;;;9.69;49.29;100033.83;107587;1254;97815;-60
2023/02/21 04:08:24;;;;;;;5.10;1.50;;;;;;;9.69;49.38;100040.30;107488;1254;98356;-61
2023/02/21 04:10:52;;;;;;;5.10;1.60;;;;;;;9.70;49.34;100039.91;107506;1254;110973;-61
2023/02/21 04:13:23;;;;;;;2.70;1.70;;;;;;;9.70;49.38;100038.07;107564;1254;109570;-61
2023/02/21 04:15:53;;;;;;;2.20;1.50;;;;;;;9.70;49.41;100040.38;107562;1254;108847;-61
2023/02/21 04:18:22;;;;;;;2.40;2.10;;;;;;;9.70;49.44;100032.19;107471;1253;97819;-60
2023/02/21 04:20:52;;;;;;;3.80;2.00;;;;;;;9.69;49.51;100028.69;107592;1253;98198;-60
2023/02/21 04:23:24;;;;;;;3.20;2.00;;;;;;;9.66;49.51;100030.03;107579;1254;112361;-61
2023/02/21 04:25:53;;;;;;;7.10;1.60;;;;;;;9.64;49.64;100036.48;107502;1254;109391;-61
2023/02/21 04:28:33;;;;;;;2.80;1.60;;;;;;;9.65;49.68;100027.66;107472;1254;108246;-61
2023/02/21 04:31:02;;;;;;;5.20;1.50;;;;;;;9.64;49.72;100025.56;107613;1254;97806;-61
2023/02/21 04:33:31;;;;;;;6.00;1.90;;;;;;;9.65;49.67;100021.41;107578;1254;97840;-61
2023/02/21 04:36:00;;;;;;;2.60;1.40;;;;;;;9.66;49.69;100021.30;107581;1254;110715;-61
2023/02/21 04:38:38;;;;;;;4.80;1.50;;;;;;;9.65;49.73;100018.36;107477;1253;108964;-60
2023/02/21 04:41:07;;;;;;;3.70;1.60;;;;;;;9.66;49.86;100017.56;107570;1253;107650;-61
2023/02/21 04:43:36;;;;;;;4.40;1.80;;;;;;;9.65;49.83;100013.83;107445;1254;97848;-61
2023/02/21 04:46:05;;;;;;;3.80;1.60;;;;;;;9.66;49.88;100014.48;107481;1254;97818;-62
2023/02/21 04:48:34;;;;;;;6.90;1.60;;;;;;;9.66;49.90;100002.49;107652;1254;110380;-61
2023/02/21 04:51:03;;;;;;;10.30;1.70;;;;;;;9.66;49.80;100002.67;107583;1254;110704;-61
2023/02/21 04:53:44;;;;;;;4.60;1.80;;;;;;;9.66;49.85;100003.88;107531;1256;108272;-61
2023/02/21 04:56:14;;;;;;;2.80;1.30;;;;;;;9.67;50.01;100002.58;107608;1253;97834;-60
2023/02/21 04:58:42;;;;;;;8.60;2.20;;;;;;;9.66;49.95;100003.04;107662;1253;97947;-61
2023/02/21 05:01:15;;;;;;;8.80;2.20;;;;;;;9.66;49.97;100004.26;107595;1254;110942;-60
2023/02/21 05:03:44;;;;;;;8.80;2.70;;;;;;;9.66;50.12;100004.47;107609;1254;109942;-59
2023/02/21 05:06:18;;;;;;;4.30;2.50;;;;;;;9.67;50.18;100001.98;107556;1254;107152;-61
2023/02/21 05:08:47;;;;;;;16.20;7.80;;;;;;;9.69;50.01;100003.27;107606;1254;97824;-62
2023/02/21 05:11:16;;;;;;;6.20;3.70;;;;;;;9.69;50.07;100008.61;107593;1254;97797;-61
2023/02/21 05:13:45;;;;;;;17.90;6.00;;;;;;;9.69;50.09;100003.21;107478;1254;111311;-60
2023/02/21 05:16:14;;;;;;;12.80;4.50;;;;;;;9.70;50.16;100000.98;107487;1254;109814;-60
2023/02/21 05:18:44;;;;;;;13.10;3.60;;;;;;;9.72;50.09;100000.86;107490;1254;107984;-60
2023/02/21 05:21:14;;;;;;;14.40;3.20;;;;;;;9.72;50.01;100001.02;107582;1256;97806;-61
2023/02/21 05:23:54;;;;;;;8.90;3.00;;;;;;;9.75;50.00;100008.14;107500;1255;97728;-60
2023/02/21 05:26:26;;;;;;;12.50;2.70;;;;;;;9.75;50.04;100010.20;107616;1253;111266;-60
2023/02/21 05:28:55;;;;;;;6.20;3.10;;;;;;;9.76;50.10;100014.77;107590;1254;109484;-60
2023/02/21 05:31:26;;;;;;;13.30;2.50;;;;;;;9.76;50.13;100014.10;107594;1254;108258;-61
2023/02/21 05:33:56;;;;;;;8.70;2.90;;;;;;;9.76;50.20;100017.33;107343;1254;97829;-60
2023/02/21 05:36:24;;;;;;;12.60;2.50;;;;;;;9.76;50.25;100027.86;107622;1254;97835;-60
2023/02/21 05:38:54;;;;;;;4.10;2.50;;;;;;;9.77;50.25;100028.63;107515;1254;111763;-60
2023/02/21 05:41:23;;;;;;;8.50;2.30;;;;;;;9.80;50.18;100033.42;107623;1254;108666;-61
2023/02/21 05:43:52;;;;;;;6.80;2.60;;;;;;;9.82;50.11;100034.10;107550;1254;108562;-61
2023/02/21 05:46:27;;;;;;;5.10;2.60;;;;;;;9.85;50.04;100027.86;107594;1254;97813;-61
2023/02/21 05:48:58;;;;;;;5.90;3.10;;;;;;;9.87;49.96;100025.64;107575;1253;98421;-59
2023/02/21 05:51:33;;;;;;;8.50;2.60;;;;;;;9.92;49.90;100035.25;107616;1254;112268;-61
2023/02/21 05:54:03;;;;;;;7.90;2.80;;;;;;;9.96;49.84;100039.85;107559;1254;109729;-62
2023/02/21 05:56:38;;;;;;;5.20;2.30;;;;;;;9.99;49.79;100045.44;107568;1254;108740;-60
2023/02/21 05:59:07;;;;;;;5.90;3.20;;;;;;;10.02;49.72;100046.05;107523;1254;97818;-61
2023/02/21 06:01:36;;;;;;;10.10;2.70;;;;;;;10.06;49.61;100043.21;107622;1254;98339;-61
2023/02/21 06:04:06;;;;;;;7.70;2.00;;;;;;;10.09;49.65;100043.80;107618;1254;110624;-61
2023/02/21 06:06:35;;;;;;;7.00;2.30;;;;;;;10.12;49.63;100045.16;107587;1254;111070;-62
2023/02/21 06:09:05;;;;;;;18.20;3.80;;;;;;;10.14;49.54;100052.30;107629;1254;107509;-61
2023/02/21 06:11:36;;;;;;;8.50;3.10;;;;;;;10.16;49.61;100049.02;107556;1254;97842;-61
2023/02/21 06:14:13;;;;;;;7.00;2.80;;;;;;;10.18;49.62;100049.73;107564;1254;97721;-62
2023/02/21 06:16:41;;;;;;;8.90;3.30;;;;;;;10.20;49.63;100052.98;107551;1254;110756;-63
2023/02/21 06:19:11;;;;;;;12.40;4.70;;;;;;;10.21;49.61;100053.73;107584;1253;109085;-62
2023/02/21 06:21:40;;;;;;;12.20;2.80;;;;;;;10.25;49.62;100055.55;107668;1254;107678;-60
2023/02/21 06:24:11;;;;;;;5.20;2.60;;;;;;;10.27;49.59;100049.55;107655;1256;97915;-61
2023/02/21 06:26:41;;;;;;;11.50;2.90;;;;;;;10.27;49.66;100055.85;107506;1254;97922;-63
2023/02/21 06:29:10;;;;;;;12.20;3.80;;;;;;;10.27;49.71;100055.71;107576;1256;111350;-62
2023/02/21 06:31:39;;;;;;;7.60;3.20;;;;;;;10.27;49.87;100060.11;107633;1254;108669;-61
2023/02/21 06:34:07;;;;;;;9.90;4.20;;;;;;;10.28;49.83;100052.73;107643;1254;107769;-62
2023/02/21 06:36:38;;;;;;;10.70;3.80;;;;;;;10.30;49.93;100053.39;107612;1253;99423;-61
2023/02/21 06:39:07;;;;;;;6.30;3.50;;;;;;;10.31;49.93;100049.53;107654;1254;97684;-61
2023/02/21 06:41:35;;;;;;;10.40;3.90;;;;;;;10.31;49.89;100047.75;107604;1254;111352;-61
2023/02/21 06:44:04;;;;;;;10.80;3.90;;;;;;;10.32;49.94;100046.02;107607;1255;109363;-60
2023/02/21 06:46:35;;;;;;;12.00;3.70;;;;;;;10.34;49.97;100049.07;107639;1254;106829;-61
2023/02/21 06:49:04;;;;;;;8.30;3.60;;;;;;;10.36;49.87;100047.65;107612;1254;97826;-60
2023/02/21 06:51:37;;;;;;;19.10;4.60;;;;;;;10.38;49.89;100046.41;107556;1253;97873;-59
2023/02/21 06:54:09;;;;;;;11.00;4.30;;;;;;;10.41;50.05;100045.17;107693;1254;111742;-60
2023/02/21 06:56:37;;;;;;;23.30;4.00;;;;;;;10.49;49.83;100045.08;107372;1254;110469;-60
2023/02/21 06:59:06;;;;;;;17.80;3.80;;;;;;;10.57;49.73;100045.41;107464;1253;108226;-60
2023/02/21 07:01:34;;;;;;;15.10;4.60;;;;;;;10.65;49.63;100046.42;107566;1254;97978;-60
2023/02/21 07:04:03;;;;;;;18.20;4.70;;;;;;;10.72;49.59;100044.66;107605;1254;97817;-59
2023/02/21 07:06:32;;;;;;;12.70;4.40;;;;;;;10.78;49.48;100041.73;107569;1254;111819;-62
2023/02/21 07:09:00;;;;;;;16.60;4.10;;;;;;;10.86;49.42;100039.66;107599;1253;109148;-60
2023/02/21 07:11:32;;;;;;;8.30;4.00;;;;;;;10.93;49.21;100041.10;107538;1253;108621;-59
2023/02/21 07:14:01;;;;;;;13.10;4.20;;;;;;;11.04;48.82;100040.45;107596;1256;97934;-60
2023/02/21 07:16:29;;;;;;;12.80;4.40;;;;;;;11.12;48.64;100042.02;107591;1254;97674;-61
2023/02/21 07:18:57;;;;;;;9.40;3.20;;;;;;;11.22;48.47;100040.80;107524;1254;111940;-61
2023/02/21 07:21:26;;;;;;;15.10;3.70;;;;;;;11.32;47.79;100035.31;107510;1254;110033;-60
2023/02/21 07:23:56;;;;;;;10.10;3.10;;;;;;;11.48;47.51;100033.14;107477;1254;107184;-61
2023/02/21 07:26:24;;;;;;;10.50;3.00;;;;;;;11.65;47.09;100033.36;107592;1256;97895;-61
2023/02/21 07:28:53;;;;;;;15.30;3.40;;;;;;;11.76;46.91;100034.19;107517;1253;97840;-61
2023/02/21 07:31:22;;;;;;;13.90;2.90;;;;;;;11.87;46.60;100037.52;107502;1254;111883;-59
2023/02/21 07:33:50;;;;;;;16.70;3.20;;;;;;;11.98;46.58;100030.84;107633;1254;110180;-61
2023/02/21 07:36:19;;;;;;;14.00;2.80;;;;;;;12.05;45.86;100030.82;107550;1256;108088;-61
2023/02/21 07:38:48;;;;;;;13.00;3.30;;;;;;;12.09;45.58;100030.15;107538;1254;97915;-61
2023/02/21 07:41:18;;;;;;;8.80;3.20;;;;;;;12.16;45.39;100025.86;107575;1253;98363;-61
2023/02/21 07:43:46;;;;;;;7.90;2.60;;;;;;;12.20;45.03;100029.56;107598;1254;111033;-60
2023/02/21 07:46:17;;;;;;;7.40;2.80;;;;;;;12.25;45.15;100027.56;107624;1254;108805;-61
2023/02/21 07:48:46;;;;;;;8.30;2.90;;;;;;;12.27;45.00;100019.40;107543;1254;107615;-60
2023/02/21 07:51:14;;;;;;;18.50;3.60;;;;;;;12.30;44.82;100021.09;107561;1256;97723;-59
2023/02/21 07:53:43;;;;;;;7.00;3.10;;;;;;;12.36;44.51;100025.95;107634;1254;98376;-61
2023/02/21 07:56:12;;;;;;;7.70;2.90;;;;;;;12.49;44.40;100028.07;107597;1254;111967;-61
2023/02/21 07:58:40;;;;;;;4.20;2.10;;;;;;;12.64;44.15;100022.52;107430;1254;110018;-60
2023/02/21 08:01:10;;;;;;;5.50;2.40;;;;;;;12.77;43.49;100027.05;107486;1254;108732;-61
2023/02/21 08:03:39;;;;;;;11.40;3.10;;;;;;;12.89;43.06;100020.66;107597;1253;97723;-60
2023/02/21 08:06:10;;;;;;;7.60;2.70;;;;;;;13.02;43.15;100017.20;107620;1253;97709;-61
2023/02/21 08:08:38;;;;;;;15.60;3.00;;;;;;;13.19;42.83;100016.60;107650;1254;112236;-61
2023/02/21 08:11:06;;;;;;;9.00;2.40;;;;;;;13.31;42.53;100014.58;107555;1254;110745;-61
2023/02/21 08:13:34;;;;;;;9.50;2.40;;;;;;;13.42;42.28;100012.95;107577;1253;108614;-59
2023/02/21 08:16:03;;;;;;;10.60;2.80;;;;;;;13.50;42.24;100009.45;107574;1254;97912;-60
2023/02/21 08:18:31;;;;;;;7.00;2.40;;;;;;;13.51;41.96;100009.72;107606;1253;97695;-61
2023/02/21 08:21:00;;;;;;;10.00;2.60;;;;;;;13.53;42.25;100008.48;107620;1254;111510;-61
2023/02/21 08:23:28;;;;;;;3.60;2.20;;;;;;;13.62;42.55;100004.77;107613;1252;110320;-60
2023/02/21 08:25:56;;;;;;;14.60;2.60;;;;;;;13.76;41.81;99998.83;107540;1254;107684;-62
2023/02/21 08:28:25;;;;;;;7.60;2.70;;;;;;;13.85;41.35;100002.02;107595;1254;97824;-60
2023/02/21 08:30:54;;;;;;;5.60;2.50;;;;;;;14.06;41.23;99988.95;107645;1252;97714;-61
2023/02/21 08:33:23;;;;;;;8.40;2.80;;;;;;;14.21;41.25;99986.75;107620;1253;111879;-60
2023/02/21 08:35:51;;;;;;;10.00;2.90;;;;;;;14.29;40.38;99986.54;107569;1254;109579;-62
2023/02/21 08:38:20;;;;;;;6.20;2.00;;;;;;;14.35;40.10;99985.48;107621;1255;108331;-61
2023/02/21 08:40:50;;;;;;;6.20;2.50;;;;;;;14.47;39.92;99982.08;107612;1254;97809;-60
2023/02/21 08:43:18;;;;;;;3.90;2.00;;;;;;;14.54;39.31;99981.98;107625;1256;97932;-60
2023/02/21 08:45:46;;;;;;;10.30;2.10;;;;;;;14.52;39.19;99981.83;107606;1254;113245;-61
2023/02/21 08:48:15;;;;;;;11.50;2.30;;;;;;;14.49;39.23;99978.36;107484;1254;109909;-61
2023/02/21 08:50:44;;;;;;;5.60;2.20;;;;;;;14.53;39.41;99983.31;107620;1254;107560;-60
2023/02/21 08:53:13;;;;;;;4.50;2.10;;;;;;;14.58;39.19;99977.11;107620;1254;97729;-61
2023/02/21 08:55:42;;;;;;;8.10;2.20;;;;;;;14.63;39.29;99973.35;107484;1254;97708;-60
2023/02/21 08:58:11;;;;;;;5.20;2.30;;;;;;;14.65;39.01;99975.64;107535;1256;111462;-61
2023/02/21 09:00:40;;;;;;;5.50;2.20;;;;;;;14.66;38.92;99978.14;107611;1254;108862;-61
2023/02/21 09:03:08;;;;;;;6.50;2.30;;;;;;;14.69;39.04;99975.94;107545;1253;108705;-60
2023/02/21 09:05:38;;;;;;;7.90;1.90;;;;;;;14.68;39.01;99971.81;107586;1256;98503;-61
2023/02/21 09:08:09;;;;;;;7.80;2.50;;;;;;;14.82;38.75;99978.56;107594;1254;97742;-60
2023/02/21 09:10:46;;;;;;;8.40;2.20;;;;;;;14.94;38.66;99972.96;107661;1256;111427;-61
2023/02/21 09:13:15;;;;;;;4.20;2.10;;;;;;;15.10;38.59;99972.36;107527;1254;109823;-60
2023/02/21 09:15:44;;;;;;;6.60;3.00;;;;;;;15.33;38.18;99975.83;107463;1253;107528;-61
2023/02/21 09:18:13;;;;;;;9.90;3.10;;;;;;;15.44;38.02;99978.19;107587;1254;97795;-61
2023/02/21 09:20:41;;;;;;;7.00;2.80;;;;;;;15.44;38.10;99971.61;107630;1254;97698;-64
2023/02/21 09:23:10;;;;;;;6.70;2.80;;;;;;;15.46;38.08;99967.21;107463;1253;111846;-61
2023/02/21 09:25:38;;;;;;;13.10;2.60;;;;;;;15.66;38.11;99961.23;107569;1254;111085;-62
2023/02/21 09:28:07;;;;;;;3.90;2.80;;;;;;;15.93;37.29;99964.77;107523;1254;108515;-60
2023/02/21 09:30:35;;;;;;;12.30;2.90;;;;;;;16.35;37.06;99952.26;107615;1253;97825;-61
2023/02/21 09:33:04;;;;;;;13.00;2.90;;;;;;;17.10;35.78;99947.92;107628;1253;97735;-62
2023/02/21 09:35:32;;;;;;;4.80;2.50;;;;;;;17.94;34.44;99946.74;107625;1254;112181;-61
2023/02/21 09:38:01;;;;;;;8.80;2.60;;;;;;;18.71;33.20;99958.59;107553;1253;109170;-60
2023/02/21 09:40:33;;;;;;;5.30;2.30;;;;;;;18.63;33.21;99955.33;107574;1254;108768;-61
2023/02/21 09:43:04;;;;;;;8.30;2.30;;;;;;;19.03;32.50;99945.23;107597;1254;98588;-60
2023/02/21 09:45:35;;;;;;;3.60;2.10;;;;;;;18.49;32.41;99962.70;107595;1253;97854;-61
2023/02/21 09:48:10;;;;;;;2.60;1.60;;;;;;;18.44;32.83;99949.29;107591;1254;114083;-61
2023/02/21 09:50:52;;;;;;;6.30;1.90;;;;;;;18.18;32.72;99950.42;107558;1253;109622;-62
2023/02/21 09:53:30;;;;;;;6.00;2.10;;;;;;;17.59;33.68;99952.77;106844;1253;745157;-62
2023/02/21 09:56:17;;;;;;;4.40;1.90;;;;;;;17.94;33.93;99941.06;107615;1253;97688;-61
2023/02/21 09:58:48;;;;;;;4.80;2.20;;;;;;;17.67;33.76;99954.77;107478;1254;98359;-61
2023/02/21 10:01:42;;;;;;;14.10;2.10;;;;;;;17.36;34.40;99950.90;107580;1252;112256;-61
2023/02/21 10:04:21;;;;;;;7.00;2.20;;;;;;;17.38;34.05;99947.31;107622;1253;110290;-61
2023/02/21 10:07:02;;;;;;;3.50;2.00;;;;;;;17.66;33.33;99937.06;107581;1254;108458;-61
2023/02/21 10:09:52;;;;;;;12.20;1.60;;;;;;;17.78;33.45;99935.64;107535;1254;97925;-60
2023/02/21 10:12:29;;;;;;;5.00;1.10;;;;;;;17.86;32.59;99931.27;107556;1254;97832;-61
2023/02/21 10:15:19;;;;;;;6.90;1.30;;;;;;;18.02;32.29;99938.54;107586;1254;112128;-62
2023/02/21 10:18:12;;;;;;;2.30;1.20;;;;;;;18.20;31.53;99932.59;107576;1252;108948;-61
2023/02/21 10:20:48;;;;;;;3.70;1.00;;;;;;;18.11;31.52;99932.81;107603;1254;108693;-63
2023/02/21 10:23:27;;;;;;;6.00;1.40;;;;;;;17.66;31.81;99930.25;107597;1253;97822;-61
2023/02/21 10:26:06;;;;;;;7.00;1.40;;;;;;;17.31;32.51;99920.14;107474;1258;97911;-62
2023/02/21 10:28:35;;;;;;;3.40;1.50;;;;;;;17.61;32.37;99920.10;107606;1253;111888;-61
2023/02/21 10:31:11;;;;;;;5.50;1.90;;;;;;;17.60;32.21;99904.36;107685;1254;110046;-62
2023/02/21 10:33:40;;;;;;;6.50;1.50;;;;;;;17.86;32.02;99904.41;107654;1253;108321;-61
2023/02/21 10:36:17;;;;;;;2.70;1.30;;;;;;;18.45;31.53;99901.14;107595;1254;98501;-62
2023/02/21 10:39:14;;;;;;;2.10;1.30;;;;;;;18.77;30.80;99905.83;107641;1253;98363;-62
2023/02/21 10:41:43;;;;;;;10.10;2.10;;;;;;;18.61;30.73;99901.65;107464;1254;112338;-61
2023/02/21 10:44:15;;;;;;;4.50;1.10;;;;;;;19.01;30.06;99893.10;107639;1253;109734;-64
2023/02/21 10:46:51;;;;;;;9.10;1.30;;;;;;;19.22;30.06;99898.76;107616;1253;108172;-62
2023/02/21 10:49:23;;;;;;;5.50;1.70;;;;;;;19.18;29.99;99892.48;107555;1253;97818;-63
2023/02/21 10:52:05;;;;;;;4.80;1.00;;;;;;;19.26;29.89;99888.89;107567;1254;97812;-61
2023/02/21 10:54:34;;;;;;;3.70;1.00;;;;;;;19.58;28.76;99887.52;107595;1254;111946;-62
2023/02/21 10:57:07;;;;;;;1.80;0.80;;;;;;;20.25;27.57;99885.39;107615;1254;109253;-62
2023/02/21 10:59:40;;;;;;;5.70;0.60;;;;;;;20.31;27.01;99878.45;107639;1253;107631;-61
2023/02/21 11:02:33;;;;;;;2.70;0.90;;;;;;;20.83;26.86;99875.60;107571;1256;97811;-62
2023/02/21 11:05:16;;;;;;;7.10;1.10;;;;;;;21.39;26.52;99875.09;107595;1253;97723;-60
2023/02/21 11:08:05;;;;;;;5.80;1.00;;;;;;;21.83;25.63;99880.43;107636;1254;112266;-64
2023/02/21 11:10:41;;;;;;;3.10;0.70;;;;;;;22.32;24.50;99872.20;107603;1253;110224;-62
2023/02/21 11:13:15;;;;;;;0.80;0.80;;;;;;;22.71;24.19;99858.47;107606;1254;108624;-62
2023/02/21 11:15:44;;;;;;;2.10;0.80;;;;;;;23.33;23.91;99850.88;107655;1256;97717;-62
2023/02/21 11:18:24;;;;;;;0.80;0.50;;;;;;;23.69;22.89;99849.48;107639;1253;97944;-61
2023/02/21 11:20:53;;;;;;;7.30;0.80;;;;;;;23.80;22.74;99847.41;107611;1254;111863;-62
2023/02/21 11:23:26;;;;;;;1.50;0.60;;;;;;;23.80;22.95;99839.23;107609;1253;110088;-62
2023/02/21 11:26:08;;;;;;;12.50;2.30;;;;;;;24.45;22.57;99835.27;107590;1254;108403;-62
2023/02/21 11:28:44;;;;;;;7.00;0.90;;;;;;;24.86;21.33;99832.27;107641;1254;97711;-63
2023/02/21 11:31:31;;;;;;;7.30;1.50;;;;;;;25.12;20.56;99837.17;107634;1253;97785;-64
2023/02/21 11:34:09;;;;;;;0.80;0.60;;;;;;;25.23;21.02;99830.92;107657;1256;111305;-61
2023/02/21 11:36:46;;;;;;;8.30;0.60;;;;;;;25.23;20.35;99831.70;107633;1252;110570;-63
2023/02/21 11:39:31;;;;;;;6.10;0.80;;;;;;;25.18;20.28;99818.42;107600;1253;108755;-63
2023/02/21 11:42:03;;;;;;;6.30;0.40;;;;;;;25.18;20.26;99818.37;107412;1254;97783;-62
2023/02/21 11:44:36;;;;;;;4.20;0.50;;;;;;;24.22;19.75;99824.34;107526;1254;97712;-63
2023/02/21 11:47:27;;;;;;;14.10;0.90;;;;;;;23.26;20.93;99828.05;107505;1254;112380;-61
2023/02/21 11:50:11;;;;;;;2.90;0.80;;;;;;;22.56;21.65;99836.33;107466;1254;111066;-62
2023/02/21 11:52:50;;;;;;;1.30;0.30;;;;;;;21.75;22.66;99831.13;107500;1254;108761;-63
2023/02/21 11:55:22;;;;;;;2.00;0.60;;;;;;;20.68;23.57;99846.67;107401;1254;97982;-61
2023/02/21 11:58:12;;;;;;;0.80;0.30;;;;;;;20.09;24.49;99838.49;107459;1257;97839;-61
2023/02/21 12:01:05;;;;;;;5.40;1.30;;;;;;;19.76;24.90;99840.52;107441;1254;111775;-61
2023/02/21 12:04:13;;;;;;;4.20;1.20;;;;;;;19.20;25.55;99842.17;107483;1257;109298;-63
2023/02/21 12:07:15;;;;;;;2.00;0.50;;;;;;;18.80;26.39;99843.20;107330;1254;108162;-61
2023/02/21 12:10:30;;;;;;;4.10;0.70;;;;;;;18.72;26.65;99835.88;107452;1253;97890;-62
2023/02/21 12:13:18;;;;;;;1.00;0.40;;;;;;;18.72;26.87;99829.09;107469;1254;97804;-62
2023/02/21 12:15:47;;;;;;;9.00;0.70;;;;;;;18.76;27.25;99834.02;107477;1253;112292;-61
2023/02/21 12:18:28;;;;;;;6.50;0.90;;;;;;;18.67;27.16;99841.46;107518;1254;110265;-62
2023/02/21 12:21:06;;;;;;;6.80;0.90;;;;;;;18.57;27.56;99841.56;107476;1253;108005;-62
2023/02/21 12:23:40;;;;;;;7.60;0.80;;;;;;;18.94;27.62;99840.84;107474;1254;97828;-63
2023/02/21 12:26:28;;;;;;;2.80;0.80;;;;;;;19.15;27.53;99847.91;107509;1254;97853;-62
2023/02/21 12:29:02;;;;;;;4.60;1.00;;;;;;;19.34;27.60;99841.48;107493;1254;111704;-63
2023/02/21 12:31:58;;;;;;;2.60;0.80;;;;;;;19.57;27.53;99829.33;107502;1254;109941;-62
2023/02/21 12:34:56;;;;;;;5.30;1.10;;;;;;;19.56;27.56;99833.23;107487;1254;107773;-62
2023/02/21 12:38:03;;;;;;;9.10;1.00;;;;;;;19.58;26.45;99846.83;107302;1254;97835;-61
2023/02/21 12:41:00;;;;;;;3.90;1.00;;;;;;;19.61;26.09;99840.56;107447;1254;97841;-60
2023/02/21 12:43:48;;;;;;;8.10;1.00;;;;;;;19.74;25.06;99837.45;107412;1258;111823;-61
2023/02/21 12:46:51;;;;;;;2.00;0.80;;;;;;;20.04;24.46;99842.36;107424;1254;109581;-62
2023/02/21 12:49:24;;;;;;;1.00;0.70;;;;;;;20.23;24.56;99846.42;107287;1254;108161;-61
2023/02/21 12:52:13;;;;;;;3.80;0.70;;;;;;;20.12;24.76;99860.61;107447;1254;97841;-61
2023/02/21 12:54:53;;;;;;;2.80;0.50;;;;;;;20.26;25.33;99884.92;107519;1254;97918;-62
2023/02/21 12:57:30;;;;;;;4.50;0.60;;;;;;;20.27;25.11;99879.65;107664;1252;112296;-63
2023/02/21 13:00:06;;;;;;;1.50;0.60;;;;;;;19.93;25.27;99878.27;107582;1254;110056;-62
2023/02/21 13:03:09;;;;;;;1.70;0.40;;;;;;;19.44;25.59;99886.37;107615;1254;108792;-62
2023/02/21 13:06:00;;;;;;;3.00;1.10;;;;;;;18.94;25.93;99882.08;107592;1253;97828;-62
2023/02/21 13:08:35;;;;;;;3.90;0.60;;;;;;;18.58;26.24;99891.55;107611;1256;97996;-64
2023/02/21 13:11:15;;;;;;;1.90;0.40;;;;;;;18.23;26.30;99898.21;107487;1254;111184;-60
2023/02/21 13:13:44;;;;;;;5.10;0.70;;;;;;;17.89;26.47;99899.88;107617;1254;109108;-61
2023/02/21 13:16:13;;;;;;;1.30;0.80;;;;;;;17.88;26.61;99902.53;107574;1252;108650;-64
2023/02/21 13:18:48;;;;;;;4.60;0.70;;;;;;;18.18;26.54;99899.63;107631;1253;97832;-61
2023/02/21 13:21:36;;;;;;;2.20;1.00;;;;;;;18.45;26.33;99895.37;107607;1252;97815;-62
2023/02/21 13:24:42;;;;;;;4.30;1.10;;;;;;;18.31;26.37;99905.21;107629;1253;112208;-62
2023/02/21 13:27:34;;;;;;;14.60;2.10;;;;;;;18.18;26.59;99907.80;107491;1252;110387;-61
2023/02/21 13:30:31;;;;;;;3.40;0.90;;;;;;;18.14;26.66;99919.05;107607;1254;108876;-61
2023/02/21 13:33:00;;;;;;;3.80;1.40;;;;;;;17.85;26.69;99911.51;107583;1254;97818;-60
2023/02/21 13:35:36;;;;;;;3.40;1.50;;;;;;;18.08;26.38;99913.10;107657;1252;97745;-63
2023/02/21 13:38:09;;;;;;;1.20;0.90;;;;;;;18.28;26.43;99918.48;107610;1253;110886;-61
2023/02/21 13:40:41;;;;;;;10.50;1.10;;;;;;;18.53;26.23;99929.55;107643;1254;110035;-62
2023/02/21 13:43:15;;;;;;;1.60;0.90;;;;;;;18.21;26.41;99928.11;107620;1254;108189;-61
2023/02/21 13:45:44;;;;;;;2.20;0.60;;;;;;;17.91;26.95;99940.25;107601;1253;97711;-61
2023/02/21 13:48:22;;;;;;;9.60;1.00;;;;;;;17.72;27.43;99955.46;107580;1256;98363;-61
2023/02/21 13:50:59;;;;;;;16.10;1.10;;;;;;;17.47;28.15;99960.95;107592;1252;111607;-62
2023/02/21 13:53:51;;;;;;;22.90;1.10;;;;;;;17.14;28.68;99976.87;107641;1254;109320;-64
2023/02/21 13:56:39;;;;;;;32.60;1.70;;;;;;;16.80;29.27;99984.23;107596;1253;107116;-61
2023/02/21 13:59:23;;;;;;;20.00;2.30;;;;;;;16.50;29.82;99997.80;107589;1254;97914;-62
2023/02/21 14:02:16;;;;;;;22.10;1.80;;;;;;;16.26;30.46;100004.87;107584;1256;97848;-62
2023/02/21 14:04:59;;;;;;;21.20;1.10;;;;;;;16.01;31.46;100004.67;107628;1256;111872;-66
2023/02/21 14:07:45;;;;;;;75.30;3.10;;;;;;;15.78;32.86;100017.36;107650;1254;110026;-61